Clementsville, Idaho
Current Conditions -  °F | °C
As of 7:53 AM on Wednesday 26 Nov 2014 (Local Time) from KRXE Reporting Station
Overcast Overcast  
Wind Chill: 31°   Ceiling: 1300
Heat Index: 39°   Visibility: 10mi
Dew Point: 34°   Wind: 14mph
Humidity: 82%   Direction: 200°SSW
Pressure: 30.23"   Gusts: NA
Location:  43.8021°N, 111.594°W
Report Text: KRXE 261453Z AUTO 20012KT 10SM OVC013 04/01 A3023 RMK AO2 SLP244 T00390011 53017
Loading
Personal Weather Stations






























Interactive Weather Map New forecast layout! Learn more

10-Day Weather Forecast

Advertisements
Track Severe Weather on mobile